Denver (DEN/KDEN)

Information

Location
Denver, CO
Local Time
18:13 / 6:13 pm
GMT Time
00:13 / 12:13 am
Gates
C30
No FAA reported delays
METAR KDEN 260002Z 02022G30KT 10SM VCTS FEW070CB BKN090 BKN120 BKN220 09/01 A2966 RMK AO2 PK WND 02030/0002 LTG DSNT NE AND E PRESRR OCNL LTGCG VC NE TSB57 TS VC NE MOV SE T00890011
TAF KDEN 252339Z 2600/2706 03020G33KT P6SM VCTS SCT035 BKN050CB BKN120 TEMPO 2601/2603 5SM -SHRA BKN030 OVC045 FM260300 01015KT P6SM VCSH BKN030 BKN045 TEMPO 2603/2605 -SHRASN OVC025 FM260700 35006KT P6SM SCT050 SCT070 BKN120 FM261100 21007KT P6SM FEW120 SCT220 FM261600 16007KT P6SM FEW120 SCT220 FM262000 32012KT P6SM SCT090 BKN140 FM270300 14008KT P6SM SCT060 BKN080